createdAt,value
2022-11-04T00:18:34.515Z,10.73
2022-11-04T00:38:34.488Z,10.59
2022-11-04T00:58:34.445Z,10.52
2022-11-04T01:18:34.415Z,10.45
2022-11-04T01:38:34.372Z,10.49
2022-11-04T01:58:34.337Z,10.57
2022-11-04T02:18:34.304Z,10.51
2022-11-04T02:38:34.278Z,10.48
2022-11-04T02:58:34.265Z,10.2
2022-11-04T03:18:34.210Z,10.3
2022-11-04T03:38:34.181Z,10.38
2022-11-04T03:58:34.135Z,9.95
2022-11-04T04:18:34.102Z,9.55
2022-11-04T04:38:34.064Z,9.4
2022-11-04T04:58:34.022Z,9.3
2022-11-04T05:18:34.023Z,9.21
2022-11-04T05:38:33.956Z,8.89
2022-11-04T05:58:33.927Z,8.87
2022-11-04T06:38:33.858Z,8.69
2022-11-04T06:58:33.814Z,8.77
2022-11-04T07:18:33.791Z,8.83
2022-11-04T07:38:33.753Z,9.07
2022-11-04T07:58:33.722Z,9.44
2022-11-04T08:18:33.687Z,9.95
2022-11-04T08:38:33.652Z,10.77
2022-11-04T08:58:33.619Z,11.44
2022-11-04T09:18:33.613Z,13.01
2022-11-04T09:38:33.566Z,13.24
2022-11-04T09:58:33.537Z,12.21
2022-11-04T10:38:33.427Z,12.08
2022-11-04T10:58:33.387Z,12.12
2022-11-04T11:18:33.355Z,11.95
2022-11-04T11:38:33.347Z,11.97
2022-11-04T12:18:33.242Z,11.53
2022-11-04T12:38:33.208Z,11.5
2022-11-04T12:58:33.182Z,11.8
2022-11-04T13:18:33.138Z,11.86
2022-11-04T13:38:33.091Z,11.92
2022-11-04T13:58:33.058Z,11.97
2022-11-04T14:18:33.016Z,11.84
2022-11-04T15:18:32.932Z,11.19
2022-11-04T15:38:32.902Z,10.91
2022-11-04T16:18:32.931Z,10.4
2022-11-04T16:38:32.775Z,10.35
2022-11-04T16:58:32.730Z,10.23
2022-11-04T17:18:32.706Z,10.16
2022-11-04T17:38:32.663Z,10.12
2022-11-04T17:58:32.632Z,10.16
2022-11-04T18:18:32.599Z,10.11
2022-11-04T18:38:32.567Z,9.72
2022-11-04T18:58:32.524Z,9.3
2022-11-04T19:18:32.492Z,8.64
2022-11-04T19:38:32.457Z,8.18
2022-11-04T19:58:32.428Z,8.1
2022-11-04T20:18:32.390Z,7.98
2022-11-04T20:38:32.357Z,8.01
2022-11-04T20:58:32.326Z,7.95
2022-11-04T21:18:32.298Z,7.96
2022-11-04T21:38:32.258Z,8.2
2022-11-04T21:58:32.228Z,8.09
2022-11-04T22:18:32.197Z,7.73
2022-11-04T22:38:32.166Z,7.97
2022-11-04T22:58:32.151Z,8
2022-11-04T23:18:32.100Z,7.4
2022-11-04T23:38:32.065Z,6.95
